Time;durP1;ratioP1;P1;durP2;ratioP2;P2;SDS_P1;SDS_P2;PMS_P1;PMS_P2;Temp;Humidity;BMP_temperature;BMP_pressure;BME280_temperature;BME280_humidity;BME280_pressure;Samples;Min_cycle;Max_cycle;Signal;HPM_P1;HPM_P2
2023/07/16 00:00:01;;;;;;;3.43;1.70;;;18.50;99.90;;;;;;4986323;28;20210;-80
2023/07/16 00:02:28;;;;;;;3.17;1.40;;;18.50;99.90;;;;;;4995812;28;20198;-80
2023/07/16 00:04:55;;;;;;;7.50;1.13;;;18.60;99.90;;;;;;4987868;28;20654;-80
2023/07/16 00:07:22;;;;;;;3.63;1.43;;;18.40;99.90;;;;;;4989871;28;20198;-80
2023/07/16 00:09:49;;;;;;;3.30;1.63;;;18.30;99.90;;;;;;4989140;28;20208;-79
2023/07/16 00:12:16;;;;;;;8.50;1.50;;;18.40;99.90;;;;;;4983737;28;20219;-80
2023/07/16 00:14:42;;;;;;;4.00;1.50;;;18.50;99.90;;;;;;4989324;28;20201;-79
2023/07/16 00:17:09;;;;;;;3.20;1.60;;;18.50;99.90;;;;;;4992732;28;20213;-79
2023/07/16 00:19:36;;;;;;;8.17;2.67;;;18.50;99.90;;;;;;5003499;28;20391;-80
2023/07/16 00:22:03;;;;;;;5.13;1.50;;;18.40;99.90;;;;;;4988760;28;20210;-79
2023/07/16 00:24:30;;;;;;;3.67;1.87;;;18.40;99.90;;;;;;4987268;28;20293;-79
2023/07/16 00:26:58;;;;;;;6.70;1.90;;;18.50;99.90;;;;;;4989785;28;20209;-79
2023/07/16 00:29:25;;;;;;;4.17;1.50;;;18.50;99.90;;;;;;4987759;28;20313;-79
2023/07/16 00:31:52;;;;;;;6.27;1.63;;;18.40;96.90;;;;;;4987575;28;20209;-79
2023/07/16 00:34:18;;;;;;;7.10;2.40;;;18.40;99.90;;;;;;4994917;28;20603;-79
2023/07/16 00:36:45;;;;;;;3.67;1.60;;;18.50;99.90;;;;;;4985854;28;20202;-79
2023/07/16 00:39:12;;;;;;;6.30;1.70;;;18.40;99.90;;;;;;4983474;28;20205;-79
2023/07/16 00:41:39;;;;;;;4.50;1.60;;;18.30;99.90;;;;;;4988109;28;20210;-79
2023/07/16 00:44:06;;;;;;;4.43;1.37;;;18.30;60.30;;;;;;4982637;28;20213;-79
2023/07/16 00:46:33;;;;;;;5.50;1.43;;;18.30;99.90;;;;;;4988945;28;20201;-79
2023/07/16 00:49:01;;;;;;;5.03;1.43;;;18.30;99.90;;;;;;4989166;28;20216;-78
2023/07/16 00:51:30;;;;;;;5.73;1.40;;;18.20;99.90;;;;;;4988082;28;20220;-79
2023/07/16 00:53:56;;;;;;;4.90;1.67;;;18.10;99.90;;;;;;4986971;28;20220;-79
2023/07/16 00:56:23;;;;;;;4.53;1.50;;;18.00;99.90;;;;;;4994900;28;20201;-79
2023/07/16 00:58:50;;;;;;;5.53;2.30;;;17.90;99.90;;;;;;4987156;28;20569;-79
2023/07/16 01:01:17;;;;;;;4.27;1.97;;;17.90;99.90;;;;;;4989652;28;20326;-79
2023/07/16 01:03:44;;;;;;;4.87;1.80;;;17.80;99.90;;;;;;5016658;23;20271;-64
2023/07/16 01:06:34;;;;;;;6.27;1.80;;;17.80;99.90;;;;;;4991932;28;20207;-65
2023/07/16 01:09:06;;;;;;;6.43;2.33;;;17.80;99.90;;;;;;4979184;28;20218;-65
2023/07/16 01:11:37;;;;;;;5.37;1.70;;;17.70;1.00;;;;;;4984069;28;20229;-66
2023/07/16 01:14:06;;;;;;;2.80;1.47;;;17.80;99.90;;;;;;4986445;28;20208;-67
2023/07/16 01:16:34;;;;;;;5.53;1.57;;;17.80;1.00;;;;;;4986270;28;20201;-65
2023/07/16 01:19:01;;;;;;;7.43;1.80;;;17.70;1.00;;;;;;5000710;28;20678;-67
2023/07/16 01:21:35;;;;;;;7.27;2.43;;;17.70;1.00;;;;;;4987328;28;20244;-66
2023/07/16 01:24:21;;;;;;;3.83;1.80;;;17.60;1.00;;;;;;4982009;28;20566;-66
2023/07/16 01:27:04;;;;;;;5.80;2.00;;;17.50;1.00;;;;;;4987786;28;20287;-65
2023/07/16 01:30:03;;;;;;;6.83;1.83;;;17.40;1.00;;;;;;4985857;28;20276;-60
2023/07/16 01:32:34;;;;;;;6.13;1.80;;;17.40;1.00;;;;;;4998944;28;20201;-61
2023/07/16 01:35:03;;;;;;;5.23;1.90;;;17.40;1.00;;;;;;4986862;28;20691;-62
2023/07/16 01:37:29;;;;;;;4.57;1.70;;;17.40;1.00;;;;;;4982375;28;20560;-62
2023/07/16 01:39:57;;;;;;;4.93;1.87;;;17.40;1.00;;;;;;4996583;28;20254;-60
2023/07/16 01:42:24;;;;;;;5.53;1.87;;;17.40;1.00;;;;;;4997363;28;20211;-61
2023/07/16 01:44:51;;;;;;;5.53;2.07;;;17.30;1.00;;;;;;4989544;28;20212;-62
2023/07/16 01:47:29;;;;;;;7.13;1.80;;;17.40;1.00;;;;;;4999353;28;20691;-60
2023/07/16 01:49:56;;;;;;;5.57;1.77;;;17.40;1.00;;;;;;4989239;28;20211;-62
2023/07/16 01:52:23;;;;;;;9.37;2.83;;;17.40;1.00;;;;;;4987063;28;20204;-61
2023/07/16 01:54:50;;;;;;;5.60;2.27;;;17.30;1.00;;;;;;4985729;28;20212;-61
2023/07/16 01:57:17;;;;;;;5.57;2.57;;;17.30;1.00;;;;;;4984886;28;20252;-61
2023/07/16 01:59:44;;;;;;;5.90;2.00;;;17.30;1.00;;;;;;4984506;28;20205;-61
2023/07/16 02:02:11;;;;;;;4.00;2.10;;;17.30;1.00;;;;;;4985992;28;20239;-61
2023/07/16 02:04:38;;;;;;;5.03;1.80;;;17.20;1.00;;;;;;4987070;28;20324;-61
2023/07/16 02:07:05;;;;;;;5.40;2.03;;;17.10;1.00;;;;;;4984899;28;20610;-60
2023/07/16 02:09:34;;;;;;;5.97;1.83;;;17.10;1.00;;;;;;4986622;28;20583;-59
2023/07/16 02:12:01;;;;;;;7.27;1.70;;;17.00;42.90;;;;;;4986159;28;20570;-62
2023/07/16 02:14:28;;;;;;;3.70;1.90;;;17.10;1.00;;;;;;4979923;28;20241;-60
2023/07/16 02:16:55;;;;;;;7.60;1.90;;;17.10;1.00;;;;;;4986417;28;20209;-60
2023/07/16 02:19:21;;;;;;;5.37;1.77;;;17.10;1.00;;;;;;4983141;28;20240;-60
2023/07/16 02:21:48;;;;;;;4.43;1.67;;;17.10;48.50;;;;;;4987106;28;20224;-60
2023/07/16 02:24:15;;;;;;;5.60;1.83;;;16.90;99.90;;;;;;5001855;28;20197;-60
2023/07/16 02:26:42;;;;;;;8.00;2.33;;;17.00;99.90;;;;;;4989016;28;20619;-60
2023/07/16 02:29:09;;;;;;;5.77;1.93;;;16.90;99.90;;;;;;4977682;28;20580;-60
2023/07/16 02:31:36;;;;;;;3.87;1.90;;;16.80;1.00;;;;;;4987727;28;20193;-65
2023/07/16 02:34:03;;;;;;;4.10;1.43;;;16.90;1.00;;;;;;4984939;28;20206;-66
2023/07/16 02:36:30;;;;;;;5.00;1.70;;;16.90;99.90;;;;;;4983426;28;20212;-66
2023/07/16 02:38:57;;;;;;;7.17;1.80;;;16.70;1.00;;;;;;4984666;28;20597;-67
2023/07/16 02:41:23;;;;;;;5.83;2.00;;;16.90;1.00;;;;;;4989882;28;20201;-66
2023/07/16 02:44:00;;;;;;;6.77;1.77;;;16.70;1.00;;;;;;4985913;28;20217;-67
2023/07/16 02:46:27;;;;;;;3.37;2.07;;;16.80;99.90;;;;;;4990262;28;20205;-65
2023/07/16 02:48:54;;;;;;;2.40;1.50;;;16.50;99.90;;;;;;4990971;28;20272;-64
2023/07/16 02:51:21;;;;;;;9.77;2.47;;;16.50;74.20;;;;;;4986952;28;20530;-67
2023/07/16 02:53:48;;;;;;;4.27;2.07;;;16.40;89.10;;;;;;4987243;28;20209;-65
2023/07/16 02:56:16;;;;;;;6.37;1.93;;;16.60;1.00;;;;;;4982840;28;20202;-66
2023/07/16 02:58:43;;;;;;;5.30;2.23;;;16.50;1.00;;;;;;4986391;28;20220;-65
2023/07/16 03:01:11;;;;;;;8.13;2.63;;;16.60;1.00;;;;;;4981412;28;20218;-67
2023/07/16 03:03:38;;;;;;;4.07;2.33;;;16.50;1.00;;;;;;4984052;28;20244;-66
2023/07/16 03:06:05;;;;;;;5.13;1.90;;;16.60;1.00;;;;;;4985235;28;20297;-66
2023/07/16 03:08:33;;;;;;;5.33;2.07;;;16.60;1.00;;;;;;4988154;28;20267;-64
2023/07/16 03:11:00;;;;;;;3.80;2.00;;;16.60;1.00;;;;;;4989122;28;22275;-61
2023/07/16 03:13:27;;;;;;;7.57;2.17;;;16.60;99.90;;;;;;4992816;28;20660;-66
2023/07/16 03:15:54;;;;;;;7.63;2.10;;;16.70;99.90;;;;;;4994012;28;20203;-66
2023/07/16 03:18:21;;;;;;;9.30;2.33;;;16.80;99.90;;;;;;4993499;28;20701;-66
2023/07/16 03:20:48;;;;;;;4.97;2.13;;;16.80;99.90;;;;;;4994041;28;20198;-61
2023/07/16 03:23:14;;;;;;;9.43;2.67;;;16.80;1.00;;;;;;4985779;28;20752;-61
2023/07/16 03:25:41;;;;;;;7.53;2.30;;;16.90;1.00;;;;;;4993451;28;20202;-61
2023/07/16 03:28:08;;;;;;;5.30;1.70;;;16.80;1.00;;;;;;4993526;28;20201;-66
2023/07/16 03:30:37;;;;;;;5.67;2.17;;;16.80;99.90;;;;;;4988238;28;20232;-65
2023/07/16 03:33:04;;;;;;;5.00;2.23;;;16.80;99.90;;;;;;4989493;28;20218;-67
2023/07/16 03:35:31;;;;;;;7.47;2.40;;;16.80;99.90;;;;;;4993552;28;20329;-65
2023/07/16 03:37:58;;;;;;;4.23;2.20;;;16.70;1.00;;;;;;4988296;28;20250;-66
2023/07/16 03:40:26;;;;;;;4.67;1.83;;;16.60;5.10;;;;;;4994476;28;20212;-63
2023/07/16 03:42:53;;;;;;;5.20;1.87;;;16.60;99.90;;;;;;4986796;28;20213;-67
2023/07/16 03:45:21;;;;;;;8.67;2.47;;;16.50;99.90;;;;;;5005272;28;20206;-65
2023/07/16 03:47:47;;;;;;;5.13;2.30;;;16.60;1.00;;;;;;4992718;28;20205;-67
2023/07/16 03:50:14;;;;;;;5.47;2.60;;;16.60;99.90;;;;;;4994568;28;20225;-67
2023/07/16 03:52:43;;;;;;;6.90;2.63;;;16.70;99.90;;;;;;4990364;28;20210;-64
2023/07/16 03:55:10;;;;;;;8.63;2.50;;;16.60;99.90;;;;;;4993788;28;20228;-66
2023/07/16 03:57:37;;;;;;;5.17;2.20;;;16.60;99.90;;;;;;4990558;28;20209;-66
2023/07/16 04:00:07;;;;;;;5.03;2.57;;;16.60;1.00;;;;;;5004670;28;20201;-65
2023/07/16 04:02:35;;;;;;;7.40;2.53;;;16.60;1.00;;;;;;4986889;28;20240;-66
2023/07/16 04:05:02;;;;;;;7.37;2.67;;;16.60;1.00;;;;;;4987452;28;20268;-60
2023/07/16 04:07:29;;;;;;;4.90;2.30;;;16.60;99.90;;;;;;4991544;28;20210;-65
2023/07/16 04:09:56;;;;;;;6.93;2.80;;;16.50;99.90;;;;;;4990771;28;20210;-67
2023/07/16 04:12:23;;;;;;;6.00;2.70;;;16.60;26.00;;;;;;4994747;28;20205;-63
2023/07/16 04:14:55;;;;;;;8.47;2.67;;;16.70;1.00;;;;;;4992584;28;20206;-63
2023/07/16 04:17:22;;;;;;;5.03;2.40;;;16.70;1.00;;;;;;4996433;28;20229;-66
2023/07/16 04:19:49;;;;;;;5.73;2.77;;;16.70;1.00;;;;;;4994922;28;20677;-65
2023/07/16 04:22:16;;;;;;;7.60;2.80;;;16.70;1.00;;;;;;5013151;28;20200;-67
2023/07/16 04:24:43;;;;;;;6.00;3.00;;;16.70;1.00;;;;;;4997803;28;20208;-66
2023/07/16 04:27:10;;;;;;;6.80;3.00;;;16.70;1.00;;;;;;4996473;28;20205;-65
2023/07/16 04:29:37;;;;;;;4.20;2.60;;;16.70;1.00;;;;;;5007980;28;20241;-61
2023/07/16 04:32:04;;;;;;;7.60;3.17;;;16.70;1.00;;;;;;4994158;28;20210;-61
2023/07/16 04:34:31;;;;;;;7.97;2.60;;;16.80;1.00;;;;;;4996175;28;20206;-60
2023/07/16 04:36:58;;;;;;;5.60;2.97;;;16.60;1.00;;;;;;4995431;28;20202;-61
2023/07/16 04:39:24;;;;;;;6.33;2.80;;;16.60;1.00;;;;;;4996650;28;20293;-61
2023/07/16 04:41:51;;;;;;;7.73;2.90;;;16.60;1.00;;;;;;4999598;28;20673;-60
2023/07/16 04:44:18;;;;;;;6.47;3.00;;;16.60;1.00;;;;;;4991101;28;20296;-65
2023/07/16 04:46:45;;;;;;;7.60;3.43;;;16.60;99.90;;;;;;4974293;28;20220;-66
2023/07/16 04:49:12;;;;;;;6.57;2.70;;;16.60;1.00;;;;;;4999694;28;20282;-66
2023/07/16 04:51:39;;;;;;;7.50;3.03;;;16.60;99.90;;;;;;4998343;28;20208;-66
2023/07/16 04:54:06;;;;;;;9.00;3.10;;;16.70;99.90;;;;;;4994861;28;20194;-65
2023/07/16 04:56:32;;;;;;;7.50;3.07;;;16.60;99.90;;;;;;4999349;28;20237;-66
2023/07/16 04:58:59;;;;;;;4.13;2.97;;;16.70;99.90;;;;;;4996593;28;20201;-66
2023/07/16 05:01:26;;;;;;;7.77;3.23;;;16.80;99.90;;;;;;4991992;28;20638;-66
2023/07/16 05:03:56;;;;;;;10.90;3.37;;;16.80;99.90;;;;;;5011071;28;20277;-65
2023/07/16 05:06:23;;;;;;;6.53;3.53;;;16.90;99.90;;;;;;4998131;28;20652;-66
2023/07/16 05:08:49;;;;;;;5.60;2.90;;;16.80;99.90;;;;;;4996454;28;20198;-66
2023/07/16 05:11:16;;;;;;;5.50;2.90;;;16.80;99.90;;;;;;4987138;28;20203;-64
2023/07/16 05:13:43;;;;;;;7.80;3.60;;;16.80;99.90;;;;;;4990739;28;20206;-66
2023/07/16 05:16:10;;;;;;;5.33;3.03;;;16.80;99.90;;;;;;4994474;28;20698;-66
2023/07/16 05:18:37;;;;;;;5.93;3.23;;;16.80;99.90;;;;;;4995944;28;20751;-66
2023/07/16 05:21:03;;;;;;;6.43;3.37;;;16.80;99.90;;;;;;4991845;28;20206;-66
2023/07/16 05:23:30;;;;;;;4.80;2.87;;;16.80;99.90;;;;;;4986279;28;20236;-66
2023/07/16 05:25:57;;;;;;;6.47;3.50;;;16.70;1.00;;;;;;4994767;28;20295;-67
2023/07/16 05:28:24;;;;;;;6.20;3.07;;;16.60;1.00;;;;;;4993157;28;20212;-65
2023/07/16 05:31:01;;;;;;;8.57;3.30;;;16.80;1.00;;;;;;4996168;28;20278;-67
2023/07/16 05:33:29;;;;;;;6.77;3.60;;;16.90;1.00;;;;;;4993585;28;20208;-68
2023/07/16 05:35:55;;;;;;;6.80;3.83;;;16.90;99.90;;;;;;4996507;28;20654;-66
2023/07/16 05:38:22;;;;;;;5.13;3.47;;;16.90;99.90;;;;;;4995798;28;20209;-65
2023/07/16 05:40:50;;;;;;;5.67;4.00;;;16.90;99.90;;;;;;4997332;28;20204;-64
2023/07/16 05:43:17;;;;;;;7.57;3.60;;;17.00;99.90;;;;;;4992753;28;20211;-65
2023/07/16 05:45:44;;;;;;;7.63;3.67;;;16.90;99.90;;;;;;4994608;28;20563;-66
2023/07/16 05:48:11;;;;;;;6.13;3.40;;;17.00;99.90;;;;;;4995332;28;20206;-66
2023/07/16 05:50:38;;;;;;;7.67;3.50;;;17.00;99.90;;;;;;4993919;28;20218;-65
2023/07/16 05:53:05;;;;;;;9.03;4.53;;;17.10;99.90;;;;;;4986664;28;20208;-65
2023/07/16 05:55:32;;;;;;;7.83;3.80;;;17.20;99.90;;;;;;4996549;28;20258;-67
2023/07/16 05:57:59;;;;;;;8.13;3.80;;;17.30;99.90;;;;;;4994345;28;20683;-65
2023/07/16 06:00:26;;;;;;;11.90;4.00;;;17.30;99.90;;;;;;4988544;28;20212;-65
2023/07/16 06:02:53;;;;;;;8.37;4.30;;;17.20;99.90;;;;;;4985848;28;21577;-65
2023/07/16 06:05:20;;;;;;;7.43;3.90;;;17.30;99.90;;;;;;4991661;28;20742;-66
2023/07/16 06:07:46;;;;;;;7.23;4.00;;;17.30;99.90;;;;;;4990119;28;20202;-66
2023/07/16 06:10:13;;;;;;;6.03;3.70;;;17.40;99.90;;;;;;5001238;28;20227;-66
2023/07/16 06:12:40;;;;;;;5.17;3.47;;;17.50;99.90;;;;;;4987257;28;20215;-66
2023/07/16 06:15:07;;;;;;;7.83;3.80;;;17.60;99.90;;;;;;5006301;28;20210;-67
2023/07/16 06:17:35;;;;;;;7.07;3.73;;;17.50;99.90;;;;;;4996642;28;20210;-64
2023/07/16 06:20:03;;;;;;;9.27;4.03;;;17.60;99.90;;;;;;4994347;28;20660;-65
2023/07/16 06:22:30;;;;;;;10.50;4.87;;;17.80;99.90;;;;;;4991147;28;20627;-64
2023/07/16 06:24:56;;;;;;;9.00;4.03;;;17.80;99.90;;;;;;4984467;28;20315;-60
2023/07/16 06:27:23;;;;;;;8.00;4.27;;;17.80;99.90;;;;;;5009212;28;20618;-61
2023/07/16 06:29:50;;;;;;;10.13;3.90;;;17.90;9.50;;;;;;4993308;28;20251;-59
2023/07/16 06:32:17;;;;;;;8.23;4.40;;;17.90;85.80;;;;;;4986453;28;20200;-60
2023/07/16 06:34:44;;;;;;;9.77;4.60;;;17.90;82.00;;;;;;4988385;28;21043;-65
2023/07/16 06:37:11;;;;;;;9.03;4.67;;;18.10;99.90;;;;;;5001454;28;20652;-67
2023/07/16 06:39:37;;;;;;;6.57;3.97;;;18.20;99.90;;;;;;5003395;28;20201;-65
2023/07/16 06:42:05;;;;;;;19.17;4.07;;;18.10;1.00;;;;;;5002132;28;20908;-65
2023/07/16 06:44:32;;;;;;;8.43;4.40;;;18.30;18.40;;;;;;4987212;28;20259;-66
2023/07/16 06:46:59;;;;;;;9.07;4.27;;;18.50;1.00;;;;;;4990304;28;20287;-66
2023/07/16 06:49:26;;;;;;;4.82;3.72;;;18.40;1.00;;;;;;4646198;28;10000709;-64
2023/07/16 06:51:53;;;;;;;9.27;3.97;;;18.50;1.00;;;;;;4971549;28;20573;-65
2023/07/16 06:54:19;;;;;;;8.70;4.30;;;18.70;1.00;;;;;;4993282;28;20357;-66
2023/07/16 06:56:46;;;;;;;7.13;4.47;;;18.60;1.00;;;;;;4980701;28;20209;-66
2023/07/16 06:59:13;;;;;;;7.67;4.13;;;18.80;1.00;;;;;;4980497;28;20200;-66
2023/07/16 07:01:40;;;;;;;7.40;3.93;;;18.90;1.00;;;;;;4975525;28;20260;-64
2023/07/16 07:04:07;;;;;;;9.80;4.60;;;19.10;1.00;;;;;;4977915;28;20300;-60
2023/07/16 07:06:34;;;;;;;10.37;4.70;;;19.30;1.00;;;;;;4992889;28;20202;-66
2023/07/16 07:09:01;;;;;;;9.20;4.23;;;19.40;1.00;;;;;;4991203;28;20270;-64
2023/07/16 07:11:27;;;;;;;9.23;5.30;;;19.50;1.00;;;;;;4988747;28;20256;-65
2023/07/16 07:13:56;;;;;;;5.93;4.13;;;19.60;1.00;;;;;;4990707;28;20203;-65
2023/07/16 07:16:23;;;;;;;8.63;4.47;;;19.50;1.00;;;;;;5005861;28;20208;-65
2023/07/16 07:18:50;;;;;;;8.60;4.27;;;19.40;1.00;;;;;;5000985;28;20650;-65
2023/07/16 07:21:17;;;;;;;8.87;4.07;;;19.20;1.00;;;;;;4982884;28;20245;-64
2023/07/16 07:23:44;;;;;;;9.43;4.50;;;19.00;1.00;;;;;;4973570;28;20226;-64
2023/07/16 07:26:11;;;;;;;8.13;4.60;;;19.00;1.00;;;;;;4977726;28;20653;-65
2023/07/16 07:28:37;;;;;;;8.47;4.43;;;19.20;1.00;;;;;;4981835;28;20229;-65
2023/07/16 07:31:04;;;;;;;7.00;3.63;;;19.30;1.00;;;;;;4987511;28;20213;-65
2023/07/16 07:33:32;;;;;;;9.77;4.40;;;19.20;1.00;;;;;;4987070;28;20213;-66
2023/07/16 07:35:59;;;;;;;11.10;4.63;;;19.10;1.00;;;;;;5000401;28;20767;-65
2023/07/16 07:38:26;;;;;;;12.17;4.90;;;18.80;1.00;;;;;;4991187;28;20200;-64
2023/07/16 07:40:53;;;;;;;9.03;4.67;;;19.10;1.00;;;;;;4988752;28;20221;-66
2023/07/16 07:43:20;;;;;;;9.80;4.10;;;19.10;1.00;;;;;;5001323;28;20221;-64
2023/07/16 07:45:46;;;;;;;8.43;4.70;;;19.30;1.00;;;;;;4981237;28;20221;-59
2023/07/16 07:48:13;;;;;;;11.60;5.03;;;19.40;1.00;;;;;;4992926;28;20683;-61
2023/07/16 07:50:40;;;;;;;9.33;5.10;;;19.30;1.00;;;;;;5003029;28;20324;-61
2023/07/16 07:53:07;;;;;;;9.07;3.60;;;19.30;1.00;;;;;;4983529;28;20293;-60
2023/07/16 07:55:37;;;;;;;8.50;4.63;;;19.40;1.00;;;;;;4985328;28;20209;-60
2023/07/16 07:58:04;;;;;;;9.20;4.13;;;19.30;1.00;;;;;;4983383;28;20198;-60
2023/07/16 08:00:30;;;;;;;9.00;4.03;;;19.30;1.00;;;;;;4982159;28;20217;-64
2023/07/16 08:02:57;;;;;;;9.17;4.53;;;19.30;1.00;;;;;;4987413;28;20838;-61
2023/07/16 08:05:25;;;;;;;9.73;4.63;;;19.50;1.00;;;;;;4988795;28;20206;-60
2023/07/16 08:07:53;;;;;;;7.30;4.23;;;19.80;1.00;;;;;;4990102;28;20198;-59
2023/07/16 08:10:20;;;;;;;7.97;3.83;;;19.80;1.00;;;;;;4985880;28;20360;-61
2023/07/16 08:12:47;;;;;;;11.27;4.77;;;19.60;1.00;;;;;;4980793;28;20205;-59
2023/07/16 08:15:14;;;;;;;9.03;4.10;;;19.50;1.00;;;;;;4988361;28;20661;-60
2023/07/16 08:17:42;;;;;;;9.00;4.63;;;19.80;1.00;;;;;;4999531;28;20525;-59
2023/07/16 08:20:10;;;;;;;8.20;4.43;;;19.80;1.00;;;;;;4987092;28;20604;-59
2023/07/16 08:22:38;;;;;;;6.30;3.60;;;19.80;1.00;;;;;;4990716;28;20210;-63
2023/07/16 08:25:06;;;;;;;7.43;4.43;;;19.70;1.00;;;;;;4989872;28;20297;-65
2023/07/16 08:27:34;;;;;;;9.63;4.43;;;19.70;1.00;;;;;;4984223;28;20285;-64
2023/07/16 08:30:01;;;;;;;8.97;4.23;;;19.80;1.00;;;;;;4988170;28;20217;-60
2023/07/16 08:32:27;;;;;;;11.17;4.20;;;19.90;1.00;;;;;;4987940;28;20237;-63
2023/07/16 08:34:54;;;;;;;9.87;3.93;;;19.70;1.00;;;;;;4980298;28;20200;-62
2023/07/16 08:37:21;;;;;;;7.30;3.80;;;19.60;1.00;;;;;;5004150;28;20658;-61
2023/07/16 08:39:52;;;;;;;7.37;4.07;;;19.70;1.00;;;;;;4986775;28;20202;-61
2023/07/16 08:42:20;;;;;;;7.20;4.40;;;19.80;1.00;;;;;;4978557;28;20198;-63
2023/07/16 08:44:50;;;;;;;8.93;4.10;;;20.20;1.00;;;;;;4986591;28;20786;-59
2023/07/16 08:47:17;;;;;;;9.23;4.40;;;20.50;1.00;;;;;;4989118;28;20618;-60
2023/07/16 08:49:56;;;;;;;7.43;4.17;;;20.50;1.00;;;;;;4991293;28;20638;-61
2023/07/16 08:52:27;;;;;;;5.63;4.00;;;20.60;1.00;;;;;;4986641;28;20272;-60
2023/07/16 08:54:54;;;;;;;6.07;3.90;;;21.00;1.00;;;;;;4989011;28;20197;-63
2023/07/16 08:57:22;;;;;;;7.20;4.23;;;21.30;1.00;;;;;;4985164;28;20212;-61
2023/07/16 08:59:50;;;;;;;6.30;4.20;;;21.40;1.00;;;;;;4986600;28;20208;-64
2023/07/16 09:02:18;;;;;;;11.60;4.40;;;21.30;1.00;;;;;;4993390;28;20292;-59
2023/07/16 09:04:49;;;;;;;10.57;3.97;;;21.10;1.00;;;;;;5001547;28;22270;-63
2023/07/16 09:07:16;;;;;;;7.47;4.30;;;20.80;1.00;;;;;;4992368;28;20231;-61
2023/07/16 09:09:43;;;;;;;6.00;3.47;;;20.40;1.00;;;;;;4983570;28;20198;-65
2023/07/16 09:12:13;;;;;;;7.67;3.97;;;20.50;1.00;;;;;;4976241;28;21215;-64
2023/07/16 09:14:43;;;;;;;5.40;3.33;;;20.30;1.00;;;;;;4976409;28;20575;-64
2023/07/16 09:17:10;;;;;;;10.20;4.47;;;20.10;1.00;;;;;;4977836;28;20217;-66
2023/07/16 09:19:37;;;;;;;8.70;4.43;;;20.20;1.00;;;;;;4984844;28;21752;-66
2023/07/16 09:22:04;;;;;;;7.97;4.13;;;20.40;1.00;;;;;;4999746;28;20685;-65
2023/07/16 09:24:33;;;;;;;5.70;3.70;;;20.50;1.00;;;;;;4982887;28;20919;-64
2023/07/16 09:27:01;;;;;;;7.93;3.77;;;20.70;1.00;;;;;;4983503;28;20629;-64
2023/07/16 09:29:29;;;;;;;4.90;3.67;;;20.60;1.00;;;;;;4985717;28;20208;-66
2023/07/16 09:31:57;;;;;;;7.30;3.50;;;20.50;1.00;;;;;;4984060;28;20211;-66
2023/07/16 09:34:27;;;;;;;11.33;3.97;;;20.30;1.00;;;;;;4980950;28;20232;-65
2023/07/16 09:36:54;;;;;;;11.43;4.27;;;20.20;1.00;;;;;;5009795;28;20713;-65
2023/07/16 09:39:22;;;;;;;8.83;3.53;;;20.30;1.00;;;;;;4993952;28;20609;-66
2023/07/16 09:41:50;;;;;;;9.00;3.80;;;20.20;1.00;;;;;;4994545;28;20211;-64
2023/07/16 09:44:17;;;;;;;7.43;3.90;;;20.40;1.00;;;;;;4991671;28;20634;-64
2023/07/16 09:46:46;;;;;;;4.73;3.67;;;20.60;1.00;;;;;;4997141;28;20198;-65
2023/07/16 09:49:15;;;;;;;6.00;4.13;;;20.80;1.00;;;;;;4992979;28;20836;-66
2023/07/16 09:51:44;;;;;;;5.13;3.57;;;20.70;1.00;;;;;;4993376;28;20228;-66
2023/07/16 09:54:15;;;;;;;10.67;3.73;;;20.60;1.00;;;;;;4992586;28;20650;-67
2023/07/16 09:56:48;;;;;;;4.30;3.17;;;20.70;1.00;;;;;;5007717;28;20204;-67
2023/07/16 09:59:17;;;;;;;8.37;3.70;;;20.50;1.00;;;;;;4995547;28;20216;-69
2023/07/16 10:01:44;;;;;;;5.00;3.17;;;20.40;1.00;;;;;;4997799;28;20205;-67
2023/07/16 10:04:16;;;;;;;6.87;3.60;;;20.50;1.00;;;;;;4991766;28;20265;-68
2023/07/16 10:06:58;;;;;;;7.30;3.77;;;20.70;1.00;;;;;;4997695;28;20291;-67
2023/07/16 10:09:38;;;;;;;8.67;3.60;;;20.90;1.00;;;;;;4995337;28;20233;-67
2023/07/16 10:12:08;;;;;;;7.17;4.00;;;20.80;1.00;;;;;;4995423;28;20221;-67
2023/07/16 10:14:46;;;;;;;7.83;3.47;;;20.70;1.00;;;;;;4991558;28;20689;-67
2023/07/16 10:17:18;;;;;;;6.20;3.43;;;20.80;1.00;;;;;;4994225;28;20220;-67
2023/07/16 10:19:59;;;;;;;9.57;3.93;;;20.80;1.00;;;;;;4992991;28;20220;-61
2023/07/16 10:22:40;;;;;;;6.70;3.30;;;20.70;1.00;;;;;;4998110;28;20259;-60
2023/07/16 10:25:19;;;;;;;7.93;3.13;;;20.50;1.00;;;;;;4995838;28;20288;-61
2023/07/16 10:27:47;;;;;;;9.90;3.77;;;20.50;1.00;;;;;;4992981;28;20569;-61
2023/07/16 10:30:15;;;;;;;6.37;3.70;;;20.40;1.00;;;;;;4996423;28;20676;-60
2023/07/16 10:32:42;;;;;;;6.57;3.73;;;20.30;1.00;;;;;;4992400;28;20633;-64
2023/07/16 10:35:10;;;;;;;7.30;3.90;;;20.40;1.00;;;;;;4990639;28;20289;-61
2023/07/16 10:37:38;;;;;;;7.23;3.47;;;20.30;1.00;;;;;;5009499;28;20201;-61
2023/07/16 10:40:09;;;;;;;6.37;3.97;;;20.30;1.00;;;;;;4990272;28;20202;-66
2023/07/16 10:42:36;;;;;;;7.60;3.97;;;20.50;1.00;;;;;;4983594;28;20312;-65
2023/07/16 10:45:06;;;;;;;5.17;3.03;;;20.50;1.00;;;;;;4995458;28;20217;-65
2023/07/16 10:47:38;;;;;;;7.77;4.33;;;20.50;1.00;;;;;;4996391;28;20213;-66
2023/07/16 10:50:09;;;;;;;9.40;3.77;;;20.50;1.00;;;;;;4996918;28;20205;-65
2023/07/16 10:52:37;;;;;;;7.83;3.70;;;20.40;1.00;;;;;;4996209;28;20237;-65
2023/07/16 10:55:04;;;;;;;6.43;4.70;;;20.40;1.00;;;;;;4994862;28;20209;-67
2023/07/16 10:57:31;;;;;;;5.70;3.63;;;20.50;1.00;;;;;;4991926;28;20642;-66
2023/07/16 11:00:00;;;;;;;8.23;3.27;;;20.10;1.00;;;;;;4996251;28;20563;-59
2023/07/16 11:02:27;;;;;;;8.57;3.90;;;19.90;1.00;;;;;;4995334;28;20240;-60
2023/07/16 11:04:57;;;;;;;10.73;4.30;;;19.80;1.00;;;;;;4993514;28;20256;-59
2023/07/16 11:07:24;;;;;;;9.30;3.77;;;19.90;1.00;;;;;;4994495;28;20213;-61
2023/07/16 11:09:53;;;;;;;7.00;3.73;;;20.40;1.00;;;;;;4997016;28;20210;-59
2023/07/16 11:12:23;;;;;;;5.77;3.93;;;20.50;1.00;;;;;;4997725;28;20213;-61
2023/07/16 11:14:52;;;;;;;8.30;3.50;;;20.60;1.00;;;;;;4997520;28;20658;-60
2023/07/16 11:17:22;;;;;;;7.43;3.60;;;20.60;1.00;;;;;;5000709;28;20205;-61
2023/07/16 11:19:51;;;;;;;9.03;3.50;;;20.60;1.00;;;;;;4997136;28;20536;-61
2023/07/16 11:22:19;;;;;;;8.43;4.30;;;20.50;1.00;;;;;;5000344;28;20229;-60
2023/07/16 11:24:48;;;;;;;7.87;3.40;;;20.50;1.00;;;;;;4991005;28;20205;-60
2023/07/16 11:27:26;;;;;;;6.73;3.70;;;20.30;1.00;;;;;;4998962;28;20209;-61
2023/07/16 11:29:54;;;;;;;7.73;4.40;;;20.30;29.90;;;;;;4995150;28;20747;-67
2023/07/16 11:32:43;;;;;;;7.63;3.53;;;20.30;1.00;;;;;;4990856;28;20221;-68
2023/07/16 11:35:18;;;;;;;8.30;3.57;;;20.60;1.00;;;;;;4989686;28;20213;-67
2023/07/16 11:37:46;;;;;;;5.37;3.40;;;20.50;1.00;;;;;;5000540;28;20288;-68
2023/07/16 11:40:18;;;;;;;5.20;3.33;;;20.40;1.00;;;;;;5000242;28;20355;-66
2023/07/16 11:42:46;;;;;;;6.13;4.27;;;20.50;1.00;;;;;;5004201;28;20643;-67
2023/07/16 11:45:21;;;;;;;9.63;3.50;;;20.30;1.00;;;;;;4999741;28;20264;-65
2023/07/16 11:47:47;;;;;;;6.30;3.47;;;20.30;1.00;;;;;;4997863;28;20205;-66
2023/07/16 11:50:15;;;;;;;7.07;4.13;;;20.80;1.00;;;;;;4992417;28;20740;-67
2023/07/16 11:52:42;;;;;;;10.30;4.20;;;21.00;1.00;;;;;;4997963;28;20252;-65
2023/07/16 11:55:09;;;;;;;7.20;3.60;;;21.20;1.00;;;;;;4994090;28;20301;-66
2023/07/16 11:57:36;;;;;;;8.13;4.27;;;21.80;1.00;;;;;;4998321;28;20542;-67
2023/07/16 12:00:04;;;;;;;6.03;3.30;;;21.90;1.00;;;;;;4998169;28;20735;-66
2023/07/16 12:02:31;;;;;;;9.57;4.00;;;21.90;1.00;;;;;;4999898;28;20253;-65
2023/07/16 12:04:59;;;;;;;7.00;3.30;;;21.50;1.00;;;;;;4994525;28;20855;-65
2023/07/16 12:07:37;;;;;;;8.53;4.20;;;21.40;1.00;;;;;;4998625;28;20275;-66
2023/07/16 12:10:06;;;;;;;6.20;3.93;;;21.80;1.00;;;;;;4998562;28;20300;-65
2023/07/16 12:12:37;;;;;;;8.93;4.17;;;21.90;1.00;;;;;;4995114;28;20271;-65
2023/07/16 12:15:06;;;;;;;10.83;3.53;;;21.80;1.00;;;;;;4990967;28;20307;-65
2023/07/16 12:17:33;;;;;;;7.10;4.37;;;21.30;1.00;;;;;;5012042;28;20235;-68
2023/07/16 12:20:01;;;;;;;8.40;3.77;;;21.90;1.00;;;;;;4997697;28;20429;-66
2023/07/16 12:22:27;;;;;;;6.33;3.50;;;22.50;1.00;;;;;;4996395;28;20206;-65
2023/07/16 12:24:54;;;;;;;7.30;3.63;;;23.00;1.00;;;;;;4996883;28;20299;-64
2023/07/16 12:27:21;;;;;;;6.03;3.20;;;22.30;1.00;;;;;;4986570;28;20205;-66
2023/07/16 12:29:48;;;;;;;5.53;3.30;;;21.90;1.00;;;;;;4996850;28;20209;-66
2023/07/16 12:32:15;;;;;;;6.57;3.77;;;22.00;1.00;;;;;;4996389;28;20222;-66
2023/07/16 12:34:42;;;;;;;7.17;3.70;;;21.70;1.00;;;;;;4990596;28;20202;-65
2023/07/16 12:37:09;;;;;;;8.80;4.40;;;21.50;1.00;;;;;;4997447;28;20296;-65
2023/07/16 12:39:36;;;;;;;10.07;4.07;;;21.40;1.00;;;;;;4997315;28;20227;-65
2023/07/16 12:42:03;;;;;;;6.70;3.73;;;21.50;1.00;;;;;;4987346;28;20707;-65
2023/07/16 12:44:31;;;;;;;8.23;3.70;;;22.00;1.00;;;;;;4631699;28;9999707;-64
2023/07/16 12:46:58;;;;;;;6.13;3.70;;;22.50;1.00;;;;;;4962748;28;20209;-67
2023/07/16 12:49:25;;;;;;;5.37;3.07;;;22.60;1.00;;;;;;4982817;28;20777;-64
2023/07/16 12:51:52;;;;;;;8.37;3.40;;;22.70;1.00;;;;;;4994116;28;20218;-64
2023/07/16 12:54:19;;;;;;;6.03;3.23;;;22.30;1.00;;;;;;4988800;28;20194;-64
2023/07/16 12:56:45;;;;;;;4.43;2.90;;;22.60;1.00;;;;;;5000606;28;20221;-65